createdAt,value
2023-05-18T00:00:23.745Z,19.19
2023-05-18T00:01:00.544Z,19.16
2023-05-18T00:01:32.950Z,19.15
2023-05-18T00:02:08.556Z,19.15
2023-05-18T00:02:43.637Z,19.13
2023-05-18T00:03:16.006Z,19.14
2023-05-18T00:03:48.549Z,19.15
2023-05-18T00:04:24.368Z,19.14
2023-05-18T00:04:57.422Z,19.14
2023-05-18T00:05:52.794Z,19.13
2023-05-18T00:06:47.509Z,19.04
2023-05-18T00:07:19.852Z,19.05
2023-05-18T00:07:53.501Z,19.07
2023-05-18T00:08:28.254Z,19.07
2023-05-18T00:09:00.636Z,19.06
2023-05-18T00:09:34.140Z,19.05
2023-05-18T00:10:08.164Z,19.06
2023-05-18T00:10:42.966Z,19.06
2023-05-18T00:11:15.221Z,19.06
2023-05-18T00:11:47.384Z,19.06
2023-05-18T00:12:22.209Z,19.06
2023-05-18T00:12:54.401Z,19.05
2023-05-18T00:13:26.629Z,19.05
2023-05-18T00:13:58.794Z,19.05
2023-05-18T00:14:34.423Z,19.04
2023-05-18T00:15:07.748Z,19.01
2023-05-18T00:15:39.961Z,19.01
2023-05-18T00:16:16.144Z,19.00
2023-05-18T00:16:49.199Z,18.99
2023-05-18T00:17:24.126Z,18.99
2023-05-18T00:17:59.177Z,18.97
2023-05-18T00:18:31.501Z,18.97
2023-05-18T00:19:03.758Z,18.98
2023-05-18T00:19:38.598Z,18.99
2023-05-18T00:20:11.733Z,18.97
2023-05-18T00:20:44.018Z,18.97
2023-05-18T00:21:16.435Z,18.98
2023-05-18T00:21:51.646Z,18.97
2023-05-18T00:22:23.838Z,18.97
2023-05-18T00:22:56.036Z,18.97
2023-05-18T00:23:33.199Z,18.96
2023-05-18T00:24:06.450Z,18.95
2023-05-18T00:24:38.734Z,18.95
2023-05-18T00:25:13.465Z,18.96
2023-05-18T00:25:45.885Z,18.94
2023-05-18T00:26:18.040Z,18.95
2023-05-18T00:26:55.349Z,18.94
2023-05-18T00:27:27.591Z,18.95
2023-05-18T00:27:59.754Z,18.96
2023-05-18T00:28:34.602Z,18.97
2023-05-18T00:29:07.226Z,18.96
2023-05-18T00:29:39.529Z,18.96
2023-05-18T00:30:16.136Z,18.94
2023-05-18T00:30:48.490Z,18.92
2023-05-18T00:31:20.757Z,18.91
2023-05-18T00:31:53.037Z,18.90
2023-05-18T00:32:30.524Z,18.92
2023-05-18T00:33:02.753Z,18.89
2023-05-18T00:33:35.028Z,18.89
2023-05-18T00:34:10.533Z,18.88
2023-05-18T00:34:42.796Z,18.89
2023-05-18T00:35:15.078Z,18.88
2023-05-18T00:35:50.047Z,18.88
2023-05-18T00:36:22.221Z,18.86
2023-05-18T00:36:54.405Z,18.87
2023-05-18T00:37:29.140Z,18.86
2023-05-18T00:38:01.626Z,18.85
2023-05-18T00:38:33.931Z,18.85
2023-05-18T00:39:08.154Z,18.84
2023-05-18T00:39:42.914Z,18.85
2023-05-18T00:40:15.185Z,18.83
2023-05-18T00:40:47.518Z,18.84
2023-05-18T00:41:22.921Z,18.83
2023-05-18T00:41:55.132Z,18.83
2023-05-18T00:42:29.635Z,18.81
2023-05-18T00:43:04.454Z,18.81
2023-05-18T00:43:36.739Z,18.79
2023-05-18T00:44:08.932Z,18.79
2023-05-18T00:44:43.702Z,18.78
2023-05-18T00:45:16.524Z,18.76
2023-05-18T00:45:48.815Z,18.77
2023-05-18T00:46:24.428Z,18.75
2023-05-18T00:46:56.738Z,18.75
2023-05-18T00:47:32.007Z,18.75
2023-05-18T00:48:07.447Z,18.74
2023-05-18T00:48:39.703Z,18.73
2023-05-18T00:49:12.277Z,18.73
2023-05-18T00:49:47.134Z,18.73
2023-05-18T00:50:19.654Z,18.71
2023-05-18T00:50:52.085Z,18.71
2023-05-18T00:51:27.713Z,18.71
2023-05-18T00:52:00.077Z,18.70
2023-05-18T00:52:33.209Z,18.71
2023-05-18T00:53:08.033Z,18.71
2023-05-18T00:53:44.036Z,18.70
2023-05-18T00:54:17.306Z,18.68
2023-05-18T00:54:52.417Z,18.66
2023-05-18T00:55:24.716Z,18.66
2023-05-18T00:55:57.164Z,18.66
2023-05-18T00:56:34.466Z,18.65
2023-05-18T00:57:07.093Z,18.62
2023-05-18T00:57:42.229Z,18.63
2023-05-18T00:58:18.118Z,18.60
2023-05-18T00:58:50.769Z,18.59
2023-05-18T00:59:23.450Z,18.58
2023-05-18T01:00:00.537Z,18.57
2023-05-18T01:00:34.124Z,18.55
2023-05-18T01:01:06.563Z,18.55
2023-05-18T01:01:44.090Z,18.53
2023-05-18T01:02:16.458Z,18.50
2023-05-18T01:02:54.123Z,18.50
2023-05-18T01:03:30.373Z,18.47
2023-05-18T01:04:04.248Z,18.45
2023-05-18T01:04:38.175Z,18.45
2023-05-18T01:05:13.790Z,18.44
2023-05-18T01:05:46.013Z,18.43
2023-05-18T01:06:18.692Z,18.43
2023-05-18T01:06:56.883Z,18.44
2023-05-18T01:07:29.200Z,18.42
2023-05-18T01:08:03.236Z,18.42
2023-05-18T01:08:39.344Z,18.41
2023-05-18T01:09:16.452Z,18.40
2023-05-18T01:09:48.729Z,18.39
2023-05-18T01:10:23.596Z,18.39
2023-05-18T01:11:03.791Z,18.38
2023-05-18T01:11:49.299Z,18.35
2023-05-18T01:12:28.715Z,18.32
2023-05-18T01:13:05.708Z,18.31
2023-05-18T01:13:47.517Z,18.32
2023-05-18T01:14:30.710Z,18.29
2023-05-18T01:15:09.404Z,18.29
2023-05-18T01:15:49.046Z,18.29
2023-05-18T01:16:28.707Z,18.28
2023-05-18T01:17:10.681Z,18.26
2023-05-18T01:18:01.031Z,18.26
2023-05-18T01:18:39.352Z,18.24
2023-05-18T01:19:40.889Z,18.22
2023-05-18T01:20:38.193Z,18.20
2023-05-18T01:21:19.638Z,18.17
2023-05-18T01:21:57.998Z,18.17
2023-05-18T01:22:41.912Z,18.17
2023-05-18T01:23:45.511Z,18.15
2023-05-18T01:24:30.498Z,18.10
2023-05-18T01:25:10.117Z,18.11
2023-05-18T01:25:48.819Z,18.11
2023-05-18T01:26:31.879Z,18.12
2023-05-18T01:27:08.405Z,18.11
2023-05-18T01:27:46.757Z,18.12
2023-05-18T01:28:27.233Z,18.12
2023-05-18T01:29:03.016Z,18.11
2023-05-18T01:29:36.067Z,18.12
2023-05-18T01:30:13.066Z,18.13
2023-05-18T01:30:45.596Z,18.12
2023-05-18T01:31:18.185Z,18.12
2023-05-18T01:31:53.055Z,18.14
2023-05-18T01:32:26.545Z,18.13
2023-05-18T01:32:58.844Z,18.13
2023-05-18T01:33:36.503Z,18.13
2023-05-18T01:34:08.685Z,18.13
2023-05-18T01:34:41.266Z,18.14
2023-05-18T01:35:16.474Z,18.14
2023-05-18T01:35:49.012Z,18.13
2023-05-18T01:36:21.355Z,18.14
2023-05-18T01:36:56.784Z,18.14
2023-05-18T01:37:29.033Z,18.13
2023-05-18T01:38:01.375Z,18.13
2023-05-18T01:38:36.581Z,18.14
2023-05-18T01:39:10.014Z,18.12
2023-05-18T01:39:42.825Z,18.12
2023-05-18T01:40:17.816Z,18.13
2023-05-18T01:40:59.400Z,18.12
2023-05-18T01:41:39.425Z,18.09
2023-05-18T01:42:23.941Z,18.06
2023-05-18T01:43:05.707Z,18.04
2023-05-18T01:43:48.050Z,17.98
2023-05-18T01:44:27.651Z,18.01
2023-05-18T01:45:07.739Z,18.01
2023-05-18T01:45:47.406Z,18.00
2023-05-18T01:46:34.995Z,17.99
2023-05-18T01:47:12.532Z,17.97
2023-05-18T01:47:48.875Z,17.98
2023-05-18T01:48:27.077Z,17.98
2023-05-18T01:49:02.827Z,17.99
2023-05-18T01:49:38.920Z,18.00
2023-05-18T01:50:19.872Z,17.99
2023-05-18T01:50:58.360Z,17.97
2023-05-18T01:51:36.871Z,17.98
2023-05-18T01:52:14.144Z,17.97
2023-05-18T01:52:52.303Z,17.96
2023-05-18T01:53:28.022Z,17.96
2023-05-18T01:54:07.947Z,17.94
2023-05-18T01:54:46.601Z,17.92
2023-05-18T01:55:19.985Z,17.93
2023-05-18T01:55:58.007Z,17.93
2023-05-18T01:56:34.139Z,17.92
2023-05-18T01:57:07.610Z,17.92
2023-05-18T01:57:45.773Z,17.93
2023-05-18T01:58:22.170Z,17.90
2023-05-18T01:58:54.625Z,17.91
2023-05-18T01:59:29.562Z,17.93
2023-05-18T02:00:04.855Z,17.93
2023-05-18T02:00:49.225Z,17.88
2023-05-18T02:01:24.195Z,17.89
2023-05-18T02:02:00.122Z,17.90
2023-05-18T02:02:33.100Z,17.88
2023-05-18T02:03:08.525Z,17.89
2023-05-18T02:03:40.913Z,17.88
2023-05-18T02:04:13.254Z,17.88
2023-05-18T02:04:49.723Z,17.88
2023-05-18T02:05:22.206Z,17.87
2023-05-18T02:05:54.456Z,17.87
2023-05-18T02:06:26.832Z,17.87
2023-05-18T02:07:01.688Z,17.86
2023-05-18T02:07:35.391Z,17.85
2023-05-18T02:08:07.586Z,17.85
2023-05-18T02:08:40.508Z,17.84
2023-05-18T02:09:15.278Z,17.84
2023-05-18T02:09:47.689Z,17.84
2023-05-18T02:10:20.232Z,17.84
2023-05-18T02:10:53.086Z,17.83
2023-05-18T02:11:28.028Z,17.82
2023-05-18T02:12:02.918Z,17.80
2023-05-18T02:12:35.361Z,17.77
2023-05-18T02:13:10.248Z,17.76
2023-05-18T02:13:42.545Z,17.75
2023-05-18T02:14:14.787Z,17.75
2023-05-18T02:14:49.568Z,17.76
2023-05-18T02:15:22.423Z,17.75
2023-05-18T02:15:55.101Z,17.74
2023-05-18T02:16:30.010Z,17.75
2023-05-18T02:17:03.682Z,17.75
2023-05-18T02:17:38.392Z,17.75
2023-05-18T02:18:11.811Z,17.74
2023-05-18T02:18:46.741Z,17.75
2023-05-18T02:19:19.928Z,17.74
2023-05-18T02:19:52.414Z,17.76
2023-05-18T02:20:24.700Z,17.75
2023-05-18T02:21:01.938Z,17.76
2023-05-18T02:21:36.229Z,17.75
2023-05-18T02:22:08.866Z,17.75
2023-05-18T02:22:41.686Z,17.76
2023-05-18T02:23:17.876Z,17.76
2023-05-18T02:23:50.436Z,17.75
2023-05-18T02:24:23.518Z,17.75
2023-05-18T02:24:58.311Z,17.75
2023-05-18T02:25:30.834Z,17.76
2023-05-18T02:26:03.323Z,17.74
2023-05-18T02:26:38.433Z,17.76
2023-05-18T02:27:15.370Z,17.75
2023-05-18T02:27:47.674Z,17.73
2023-05-18T02:28:22.807Z,17.74
2023-05-18T02:28:54.999Z,17.74
2023-05-18T02:29:27.197Z,17.74
2023-05-18T02:30:04.460Z,17.73
2023-05-18T02:30:36.644Z,17.72
2023-05-18T02:31:09.843Z,17.72
2023-05-18T02:31:44.647Z,17.71
2023-05-18T02:32:16.958Z,17.70
2023-05-18T02:32:50.983Z,17.71
2023-05-18T02:33:26.710Z,17.71
2023-05-18T02:33:59.108Z,17.69
2023-05-18T02:34:33.155Z,17.69
2023-05-18T02:35:09.091Z,17.69
2023-05-18T02:35:41.440Z,17.68
2023-05-18T02:36:14.636Z,17.68
2023-05-18T02:36:50.028Z,17.67
2023-05-18T02:37:23.414Z,17.66
2023-05-18T02:37:56.081Z,17.65
2023-05-18T02:38:32.154Z,17.65
2023-05-18T02:39:05.085Z,17.65
2023-05-18T02:39:37.302Z,17.64
2023-05-18T02:40:14.493Z,17.64
2023-05-18T02:40:47.026Z,17.62
2023-05-18T02:41:21.689Z,17.63
2023-05-18T02:41:56.567Z,17.63
2023-05-18T02:42:32.130Z,17.62
2023-05-18T02:43:05.431Z,17.61
2023-05-18T02:43:40.260Z,17.61
2023-05-18T02:44:13.798Z,17.61
2023-05-18T02:44:45.999Z,17.61
2023-05-18T02:45:23.660Z,17.60
2023-05-18T02:45:55.830Z,17.60
2023-05-18T02:46:28.275Z,17.60
2023-05-18T02:47:03.100Z,17.60
2023-05-18T02:47:35.387Z,17.59
2023-05-18T02:48:07.762Z,17.60
2023-05-18T02:48:45.966Z,17.60
2023-05-18T02:49:18.357Z,17.57
2023-05-18T02:49:51.867Z,17.58
2023-05-18T02:50:26.816Z,17.58
2023-05-18T02:50:59.109Z,17.58
2023-05-18T02:51:31.704Z,17.58
2023-05-18T02:52:04.940Z,17.59
2023-05-18T02:52:39.790Z,17.60
2023-05-18T02:53:12.306Z,17.58
2023-05-18T02:53:44.559Z,17.59
2023-05-18T02:54:22.223Z,17.60
2023-05-18T02:54:54.998Z,17.60
2023-05-18T02:55:36.675Z,17.56
2023-05-18T02:56:18.506Z,17.56
2023-05-18T02:56:57.132Z,17.55
2023-05-18T02:57:47.289Z,17.54
2023-05-18T02:58:26.221Z,17.50
2023-05-18T02:59:08.690Z,17.46
2023-05-18T02:59:43.949Z,17.47
2023-05-18T03:00:19.809Z,17.48
2023-05-18T03:00:53.242Z,17.48
2023-05-18T03:01:27.343Z,17.48
2023-05-18T03:01:59.770Z,17.48
2023-05-18T03:02:38.948Z,17.49
2023-05-18T03:03:15.908Z,17.45
2023-05-18T03:03:50.011Z,17.46
2023-05-18T03:04:26.220Z,17.48
2023-05-18T03:05:00.893Z,17.48
2023-05-18T03:05:33.103Z,17.49
2023-05-18T03:06:08.388Z,17.50
2023-05-18T03:06:43.395Z,17.50
2023-05-18T03:07:15.919Z,17.50
2023-05-18T03:07:51.181Z,17.51
2023-05-18T03:08:29.083Z,17.51
2023-05-18T03:09:01.314Z,17.50
2023-05-18T03:09:39.970Z,17.50
2023-05-18T03:10:12.250Z,17.51
2023-05-18T03:10:47.922Z,17.51
2023-05-18T03:11:20.200Z,17.51
2023-05-18T03:11:53.679Z,17.52
2023-05-18T03:12:28.604Z,17.50
2023-05-18T03:13:03.479Z,17.50
2023-05-18T03:13:36.089Z,17.48
2023-05-18T03:14:08.598Z,17.50
2023-05-18T03:14:43.551Z,17.50
2023-05-18T03:15:16.483Z,17.49
2023-05-18T03:15:51.101Z,17.48
2023-05-18T03:16:28.516Z,17.48
2023-05-18T03:17:01.838Z,17.47
2023-05-18T03:17:34.611Z,17.48
2023-05-18T03:18:09.911Z,17.49
2023-05-18T03:18:42.419Z,17.50
2023-05-18T03:19:16.366Z,17.52
2023-05-18T03:19:51.610Z,17.53
2023-05-18T03:20:23.892Z,17.54
2023-05-18T03:20:56.399Z,17.55
2023-05-18T03:21:33.770Z,17.55
2023-05-18T03:22:06.374Z,17.55
2023-05-18T03:22:39.182Z,17.56
2023-05-18T03:23:14.092Z,17.57
2023-05-18T03:23:47.491Z,17.56
2023-05-18T03:24:20.541Z,17.58
2023-05-18T03:24:57.292Z,17.58
2023-05-18T03:25:30.689Z,17.59
2023-05-18T03:26:04.123Z,17.60
2023-05-18T03:26:42.034Z,17.59
2023-05-18T03:27:17.603Z,17.59
2023-05-18T03:27:51.722Z,17.59
2023-05-18T03:28:29.100Z,17.59
2023-05-18T03:29:02.196Z,17.59
2023-05-18T03:29:34.853Z,17.59
2023-05-18T03:30:12.789Z,17.59
2023-05-18T03:30:45.085Z,17.59
2023-05-18T03:31:17.357Z,17.61
2023-05-18T03:31:52.357Z,17.63
2023-05-18T03:32:25.086Z,17.64
2023-05-18T03:32:57.721Z,17.65
2023-05-18T03:33:32.569Z,17.66
2023-05-18T03:34:04.844Z,17.67
2023-05-18T03:34:37.392Z,17.68
2023-05-18T03:35:12.972Z,17.69
2023-05-18T03:35:47.815Z,17.69
2023-05-18T03:36:26.090Z,17.70
2023-05-18T03:36:58.379Z,17.70
2023-05-18T03:37:30.985Z,17.71
2023-05-18T03:38:03.252Z,17.72
2023-05-18T03:38:38.039Z,17.72
2023-05-18T03:39:14.649Z,17.72
2023-05-18T03:39:46.817Z,17.74
2023-05-18T03:40:22.934Z,17.75
2023-05-18T03:40:55.442Z,17.74
2023-05-18T03:41:28.571Z,17.74
2023-05-18T03:42:03.402Z,17.75
2023-05-18T03:42:35.923Z,17.75
2023-05-18T03:43:08.595Z,17.76
2023-05-18T03:43:46.902Z,17.77
2023-05-18T03:44:19.407Z,17.75
2023-05-18T03:44:52.033Z,17.77
2023-05-18T03:45:27.237Z,17.78
2023-05-18T03:45:59.851Z,17.77
2023-05-18T03:46:32.115Z,17.78
2023-05-18T03:47:07.979Z,17.79
2023-05-18T03:47:40.845Z,17.79
2023-05-18T03:48:13.225Z,17.79
2023-05-18T03:48:48.026Z,17.80
2023-05-18T03:49:25.037Z,17.78
2023-05-18T03:49:58.445Z,17.79
2023-05-18T03:50:34.042Z,17.80
2023-05-18T03:51:06.724Z,17.81
2023-05-18T03:51:39.643Z,17.81
2023-05-18T03:52:16.067Z,17.81
2023-05-18T03:52:48.289Z,17.80
2023-05-18T03:53:21.682Z,17.81
2023-05-18T03:53:56.444Z,17.82
2023-05-18T03:54:28.657Z,17.82
2023-05-18T03:55:01.786Z,17.83
2023-05-18T03:55:36.658Z,17.83
2023-05-18T03:56:09.211Z,17.84
2023-05-18T03:56:42.326Z,17.84
2023-05-18T03:57:17.095Z,17.83
2023-05-18T03:57:49.694Z,17.84
2023-05-18T03:58:24.450Z,17.84
2023-05-18T03:58:59.484Z,17.84
2023-05-18T03:59:31.767Z,17.85
2023-05-18T04:00:12.374Z,17.86
2023-05-18T04:00:50.782Z,17.83
2023-05-18T04:01:24.081Z,17.85
2023-05-18T04:02:00.410Z,17.85
2023-05-18T04:02:32.871Z,17.86
2023-05-18T04:03:05.267Z,17.86
2023-05-18T04:03:37.840Z,17.89
2023-05-18T04:04:18.483Z,17.89
2023-05-18T04:04:54.229Z,17.89
2023-05-18T04:05:26.441Z,17.89
2023-05-18T04:06:01.274Z,17.90
2023-05-18T04:06:35.559Z,17.90
2023-05-18T04:07:07.852Z,17.90
2023-05-18T04:07:44.430Z,17.90
2023-05-18T04:08:19.448Z,17.89
2023-05-18T04:08:51.654Z,17.89
2023-05-18T04:09:24.177Z,17.90
2023-05-18T04:09:56.792Z,17.90
2023-05-18T04:10:31.576Z,17.91
2023-05-18T04:11:04.922Z,17.91
2023-05-18T04:11:37.160Z,17.90
2023-05-18T04:12:12.476Z,17.90
2023-05-18T04:12:44.681Z,17.91
2023-05-18T04:13:16.831Z,17.92
2023-05-18T04:13:51.575Z,17.92
2023-05-18T04:14:28.306Z,17.92
2023-05-18T04:15:01.060Z,17.92
2023-05-18T04:15:36.625Z,17.93
2023-05-18T04:16:10.837Z,17.93
2023-05-18T04:16:43.244Z,17.95
2023-05-18T04:17:17.440Z,17.97
2023-05-18T04:17:54.055Z,17.96
2023-05-18T04:18:30.430Z,17.97
2023-05-18T04:19:06.258Z,17.97
2023-05-18T04:19:42.737Z,17.97
2023-05-18T04:20:15.527Z,17.98
2023-05-18T04:20:47.802Z,17.99
2023-05-18T04:21:23.389Z,18.01
2023-05-18T04:21:55.704Z,18.00
2023-05-18T04:22:31.388Z,18.02
2023-05-18T04:23:06.596Z,18.02
2023-05-18T04:23:39.536Z,18.02
2023-05-18T04:24:14.649Z,18.04
2023-05-18T04:24:50.782Z,18.05
2023-05-18T04:25:27.354Z,18.06
2023-05-18T04:26:00.160Z,18.05
2023-05-18T04:26:36.909Z,18.07
2023-05-18T04:27:09.612Z,18.06
2023-05-18T04:27:42.461Z,18.09
2023-05-18T04:28:17.305Z,18.08
2023-05-18T04:28:50.135Z,18.10
2023-05-18T04:29:22.684Z,18.10
2023-05-18T04:30:00.056Z,18.12
2023-05-18T04:30:33.235Z,18.12
2023-05-18T04:31:06.214Z,18.11
2023-05-18T04:31:44.898Z,18.14
2023-05-18T04:32:19.060Z,18.14
2023-05-18T04:32:51.456Z,18.15
2023-05-18T04:33:26.501Z,18.17
2023-05-18T04:34:00.610Z,18.17
2023-05-18T04:34:34.547Z,18.17
2023-05-18T04:35:10.910Z,18.19
2023-05-18T04:35:44.764Z,18.20
2023-05-18T04:36:21.123Z,18.20
2023-05-18T04:36:58.787Z,18.20
2023-05-18T04:37:31.020Z,18.20
2023-05-18T04:38:05.514Z,18.21
2023-05-18T04:38:40.823Z,18.22
2023-05-18T04:39:13.480Z,18.23
2023-05-18T04:39:46.106Z,18.24
2023-05-18T04:40:21.464Z,18.25
2023-05-18T04:40:57.236Z,18.25
2023-05-18T04:41:30.238Z,18.24
2023-05-18T04:42:05.071Z,18.27
2023-05-18T04:42:37.398Z,18.28
2023-05-18T04:43:09.609Z,18.28
2023-05-18T04:43:44.415Z,18.30
2023-05-18T04:44:18.435Z,18.30
2023-05-18T04:44:52.427Z,18.32
2023-05-18T04:45:30.299Z,18.34
2023-05-18T04:46:02.960Z,18.33
2023-05-18T04:46:39.910Z,18.34
2023-05-18T04:47:16.490Z,18.36
2023-05-18T04:47:54.065Z,18.39
2023-05-18T04:48:29.761Z,18.37
2023-05-18T04:49:01.980Z,18.39
2023-05-18T04:49:38.834Z,18.40
2023-05-18T04:50:13.769Z,18.41
2023-05-18T04:50:46.346Z,18.42
2023-05-18T04:51:21.907Z,18.45
2023-05-18T04:51:59.564Z,18.44
2023-05-18T04:52:37.112Z,18.46
2023-05-18T04:53:12.493Z,18.46
2023-05-18T04:53:47.546Z,18.47
2023-05-18T04:54:20.960Z,18.49
2023-05-18T04:54:53.244Z,18.51
2023-05-18T04:55:29.454Z,18.53
2023-05-18T04:56:09.652Z,18.53
2023-05-18T04:56:44.438Z,18.55
2023-05-18T04:57:16.598Z,18.58
2023-05-18T04:57:49.132Z,18.60
2023-05-18T04:58:24.031Z,18.61
2023-05-18T04:58:59.563Z,18.62
2023-05-18T04:59:37.303Z,18.62
2023-05-18T05:00:13.083Z,18.62
2023-05-18T05:00:50.508Z,18.64
2023-05-18T05:01:22.952Z,18.63
2023-05-18T05:01:55.591Z,18.64
2023-05-18T05:02:31.085Z,18.65
2023-05-18T05:03:03.757Z,18.66
2023-05-18T05:03:36.187Z,18.67
2023-05-18T05:04:11.359Z,18.68
2023-05-18T05:04:43.577Z,18.69
2023-05-18T05:05:15.798Z,18.72
2023-05-18T05:05:48.147Z,18.73
2023-05-18T05:06:22.920Z,18.74
2023-05-18T05:06:55.228Z,18.75
2023-05-18T05:07:27.385Z,18.77
2023-05-18T05:08:02.210Z,18.78
2023-05-18T05:08:35.736Z,18.79
2023-05-18T05:09:08.361Z,18.81
2023-05-18T05:09:43.238Z,18.82
2023-05-18T05:10:15.468Z,18.83
2023-05-18T05:10:47.686Z,18.83
2023-05-18T05:11:23.090Z,18.85
2023-05-18T05:11:56.532Z,18.86
2023-05-18T05:12:29.226Z,18.88
2023-05-18T05:13:04.063Z,18.89
2023-05-18T05:13:36.758Z,18.91
2023-05-18T05:14:09.053Z,18.92
2023-05-18T05:14:44.590Z,18.95
2023-05-18T05:15:17.138Z,18.95
2023-05-18T05:15:52.191Z,18.97
2023-05-18T05:16:27.231Z,18.97
2023-05-18T05:16:59.552Z,18.99
2023-05-18T05:17:31.778Z,19.00
2023-05-18T05:18:06.960Z,19.04
2023-05-18T05:18:40.172Z,19.04
2023-05-18T05:19:12.536Z,19.05
2023-05-18T05:19:44.985Z,19.06
2023-05-18T05:20:20.643Z,19.07
2023-05-18T05:20:53.834Z,19.08
2023-05-18T05:21:27.035Z,19.09
2023-05-18T05:21:59.345Z,19.11
2023-05-18T05:22:34.207Z,19.11
2023-05-18T05:23:07.680Z,19.13
2023-05-18T05:23:43.242Z,19.12
2023-05-18T05:24:18.121Z,19.14
2023-05-18T05:24:51.316Z,19.13
2023-05-18T05:25:23.617Z,19.16
2023-05-18T05:25:58.743Z,19.18
2023-05-18T05:26:35.671Z,19.18
2023-05-18T05:27:07.993Z,19.20
2023-05-18T05:27:42.882Z,19.21
2023-05-18T05:28:15.243Z,19.22
2023-05-18T05:28:48.256Z,19.22
2023-05-18T05:29:23.462Z,19.23
2023-05-18T05:29:56.525Z,19.24
2023-05-18T05:30:29.171Z,19.27
2023-05-18T05:31:06.625Z,19.28
2023-05-18T05:31:39.167Z,19.27
2023-05-18T05:32:12.545Z,19.28
2023-05-18T05:32:47.989Z,19.30
2023-05-18T05:33:20.265Z,19.30
2023-05-18T05:33:52.607Z,19.32
2023-05-18T05:34:27.364Z,19.34
2023-05-18T05:34:59.931Z,19.35
2023-05-18T05:35:33.571Z,19.36
2023-05-18T05:36:09.755Z,19.39
2023-05-18T05:36:42.123Z,19.39
2023-05-18T05:37:14.763Z,19.40
2023-05-18T05:37:49.607Z,19.43
2023-05-18T05:38:22.676Z,19.44
2023-05-18T05:38:54.943Z,19.46
2023-05-18T05:39:27.260Z,19.48
2023-05-18T05:40:02.374Z,19.49
2023-05-18T05:40:38.026Z,19.49
2023-05-18T05:41:10.249Z,19.51
2023-05-18T05:41:45.756Z,19.53
2023-05-18T05:42:17.940Z,19.55
2023-05-18T05:42:52.772Z,19.56
2023-05-18T05:43:25.026Z,19.57
2023-05-18T05:43:57.266Z,19.60
2023-05-18T05:44:32.250Z,19.60
2023-05-18T05:45:05.119Z,19.61
2023-05-18T05:45:43.754Z,19.61
2023-05-18T05:46:21.980Z,19.63
2023-05-18T05:46:54.244Z,19.63
2023-05-18T05:47:26.722Z,19.65
2023-05-18T05:48:01.850Z,19.67
2023-05-18T05:48:35.975Z,19.68
2023-05-18T05:49:08.480Z,19.72
2023-05-18T05:49:43.244Z,19.73
2023-05-18T05:50:15.451Z,19.74
2023-05-18T05:50:47.915Z,19.75
2023-05-18T05:51:21.644Z,19.76
2023-05-18T05:51:56.514Z,19.77
2023-05-18T05:52:29.217Z,19.78
2023-05-18T05:53:01.697Z,19.80
2023-05-18T05:53:39.805Z,19.82
2023-05-18T05:54:11.995Z,19.81
2023-05-18T05:54:44.651Z,19.83
2023-05-18T05:55:20.225Z,19.84
2023-05-18T05:55:52.419Z,19.85
2023-05-18T05:56:24.737Z,19.86
2023-05-18T05:56:59.535Z,19.88
2023-05-18T05:57:31.953Z,19.88
2023-05-18T05:58:05.614Z,19.90
2023-05-18T05:58:40.510Z,19.91
2023-05-18T05:59:12.780Z,19.92
2023-05-18T05:59:45.038Z,19.93
2023-05-18T06:00:21.020Z,19.95
2023-05-18T06:00:53.245Z,19.95
2023-05-18T06:01:29.384Z,19.97
2023-05-18T06:02:04.488Z,19.97
2023-05-18T06:02:38.219Z,19.99
2023-05-18T06:03:10.598Z,20.01
2023-05-18T06:03:49.259Z,20.02
2023-05-18T06:04:21.534Z,20.02
2023-05-18T06:04:53.848Z,20.03
2023-05-18T06:05:29.088Z,20.05
2023-05-18T06:06:02.022Z,20.05
2023-05-18T06:06:35.052Z,20.06
2023-05-18T06:07:10.055Z,20.09
2023-05-18T06:07:43.494Z,20.11
2023-05-18T06:08:17.187Z,20.13
2023-05-18T06:08:52.563Z,20.16
2023-05-18T06:09:24.762Z,20.17
2023-05-18T06:09:56.962Z,20.19
2023-05-18T06:10:31.942Z,20.21
2023-05-18T06:11:04.784Z,20.24
2023-05-18T06:11:37.204Z,20.24
2023-05-18T06:12:12.985Z,20.26
2023-05-18T06:12:45.154Z,20.27
2023-05-18T06:13:18.082Z,20.28
2023-05-18T06:14:02.074Z,20.28
2023-05-18T06:14:34.757Z,20.29
2023-05-18T06:15:09.360Z,20.31
2023-05-18T06:15:46.581Z,20.32
2023-05-18T06:16:19.118Z,20.33
2023-05-18T06:16:53.994Z,20.36
2023-05-18T06:17:30.881Z,20.36
2023-05-18T06:18:03.402Z,20.36
2023-05-18T06:18:36.784Z,20.38
2023-05-18T06:19:13.264Z,20.40
2023-05-18T06:19:45.614Z,20.41
2023-05-18T06:20:18.408Z,20.42
2023-05-18T06:20:53.190Z,20.43
2023-05-18T06:21:27.239Z,20.42
2023-05-18T06:22:02.601Z,20.43
2023-05-18T06:22:39.372Z,20.42
2023-05-18T06:23:31.564Z,20.40
2023-05-18T06:24:07.383Z,20.42
2023-05-18T06:25:00.656Z,20.42
2023-05-18T06:25:54.279Z,20.42
2023-05-18T06:26:37.572Z,20.45
2023-05-18T06:27:09.816Z,20.48
2023-05-18T06:27:54.921Z,20.48
2023-05-18T06:28:46.449Z,20.50
2023-05-18T06:29:31.914Z,20.51
2023-05-18T06:30:11.397Z,20.54
2023-05-18T06:31:06.487Z,20.55
2023-05-18T06:31:53.568Z,20.58
2023-05-18T06:32:32.104Z,20.60
2023-05-18T06:33:04.773Z,20.63
2023-05-18T06:33:39.572Z,20.65
2023-05-18T06:34:11.773Z,20.67
2023-05-18T06:34:46.017Z,20.70
2023-05-18T06:35:21.074Z,20.72
2023-05-18T06:35:53.275Z,20.74
2023-05-18T06:36:25.570Z,20.77
2023-05-18T06:37:00.711Z,20.78
2023-05-18T06:37:32.998Z,20.79
2023-05-18T06:38:05.339Z,20.82
2023-05-18T06:38:40.470Z,20.83
2023-05-18T06:39:12.661Z,20.85
2023-05-18T06:39:47.438Z,20.87
2023-05-18T06:40:19.641Z,20.89
2023-05-18T06:40:52.008Z,20.90
2023-05-18T06:41:27.088Z,20.92
2023-05-18T06:41:59.418Z,20.92
2023-05-18T06:42:37.604Z,20.92
2023-05-18T06:43:32.781Z,20.92
2023-05-18T06:44:09.649Z,20.92
2023-05-18T06:44:45.269Z,20.95
2023-05-18T06:45:22.769Z,20.96
2023-05-18T06:46:23.242Z,20.95
2023-05-18T06:47:01.536Z,21.00
2023-05-18T06:47:37.903Z,21.02
2023-05-18T06:48:10.315Z,21.05
2023-05-18T06:48:45.993Z,21.07
2023-05-18T06:49:18.235Z,21.10
2023-05-18T06:49:50.761Z,21.11
2023-05-18T06:50:25.814Z,21.13
2023-05-18T06:50:58.019Z,21.16
2023-05-18T06:51:30.264Z,21.18
2023-05-18T06:52:05.707Z,21.20
2023-05-18T06:52:38.068Z,21.21
2023-05-18T06:53:13.718Z,21.22
2023-05-18T06:53:46.479Z,21.23
2023-05-18T06:54:19.606Z,21.24
2023-05-18T06:54:54.427Z,21.26
2023-05-18T06:55:27.550Z,21.27
2023-05-18T06:55:59.851Z,21.29
2023-05-18T06:56:35.514Z,21.31
2023-05-18T06:57:07.928Z,21.32
2023-05-18T06:57:40.170Z,21.35
2023-05-18T06:58:15.198Z,21.37
2023-05-18T06:58:48.163Z,21.38
2023-05-18T06:59:20.658Z,21.40
2023-05-18T06:59:55.669Z,21.41
2023-05-18T07:00:28.299Z,21.43
2023-05-18T07:01:02.863Z,21.44
2023-05-18T07:01:38.613Z,21.46
2023-05-18T07:02:14.106Z,21.47
2023-05-18T07:02:49.519Z,21.48
2023-05-18T07:03:22.292Z,21.47
2023-05-18T07:03:54.643Z,21.50
2023-05-18T07:04:29.553Z,21.51
2023-05-18T07:05:05.286Z,21.52
2023-05-18T07:05:40.230Z,21.53
2023-05-18T07:06:12.524Z,21.54
2023-05-18T07:06:44.756Z,21.55
2023-05-18T07:07:20.170Z,21.59
2023-05-18T07:07:52.663Z,21.60
2023-05-18T07:08:27.740Z,21.60
2023-05-18T07:09:00.249Z,21.61
2023-05-18T07:09:32.537Z,21.61
2023-05-18T07:10:08.657Z,21.64
2023-05-18T07:10:41.378Z,21.64
2023-05-18T07:11:13.611Z,21.65
2023-05-18T07:11:48.363Z,21.66
2023-05-18T07:12:20.807Z,21.67
2023-05-18T07:12:55.665Z,21.68
2023-05-18T07:13:27.869Z,21.70
2023-05-18T07:14:02.732Z,21.70
2023-05-18T07:14:35.021Z,21.71
2023-05-18T07:15:08.537Z,21.72
2023-05-18T07:15:43.359Z,21.73
2023-05-18T07:16:15.655Z,21.74
2023-05-18T07:16:48.340Z,21.76
2023-05-18T07:17:26.106Z,21.78
2023-05-18T07:17:58.947Z,21.76
2023-05-18T07:18:34.222Z,21.79
2023-05-18T07:19:06.588Z,21.81
2023-05-18T07:19:41.388Z,21.83
2023-05-18T07:20:13.680Z,21.86
2023-05-18T07:20:48.545Z,21.87
2023-05-18T07:21:20.867Z,21.91
2023-05-18T07:21:53.128Z,21.95
2023-05-18T07:22:28.002Z,21.97
2023-05-18T07:23:00.221Z,21.99
2023-05-18T07:23:35.008Z,22.02
2023-05-18T07:24:07.488Z,22.04
2023-05-18T07:24:39.772Z,22.05
2023-05-18T07:25:14.560Z,22.07
2023-05-18T07:25:46.972Z,22.07
2023-05-18T07:26:19.618Z,22.10
2023-05-18T07:26:54.421Z,22.11
2023-05-18T07:27:26.821Z,22.11
2023-05-18T07:28:01.592Z,22.13
2023-05-18T07:28:33.903Z,22.14
2023-05-18T07:29:07.448Z,22.14